Time;durP1;ratioP1;P1;durP2;ratioP2;P2;SDS_P1;SDS_P2;PMS_P1;PMS_P2;Temp;Humidity;BMP_temperature;BMP_pressure;BME280_temperature;BME280_humidity;BME280_pressure;Samples;Min_cycle;Max_cycle;Signal;HPM_P1;HPM_P2
2021/04/26 00:01:14;;;;;;;;;;;13.10;52.70;;;;;;2080097;28;1533;-55
2021/04/26 00:02:33;;;;;;;;;;;13.10;52.60;;;;;;2072377;28;737;-55
2021/04/26 00:03:53;;;;;;;;;;;13.10;52.60;;;;;;2077458;28;756;-57
2021/04/26 00:05:13;;;;;;;;;;;13.10;52.10;;;;;;2080846;28;727;-55
2021/04/26 00:06:32;;;;;;;;;;;13.10;52.20;;;;;;2081079;28;946;-55
2021/04/26 00:07:52;;;;;;;;;;;13.10;52.20;;;;;;2078138;28;1460;-58
2021/04/26 00:09:11;;;;;;;;;;;13.10;52.30;;;;;;2064290;28;746;-58
2021/04/26 00:10:31;;;;;;;;;;;13.10;52.20;;;;;;2069038;28;731;-55
2021/04/26 00:11:50;;;;;;;;;;;13.10;52.20;;;;;;2072387;28;1385;-56
2021/04/26 00:13:09;;;;;;;;;;;13.10;52.30;;;;;;2064345;28;768;-56
2021/04/26 00:14:28;;;;;;;;;;;13.00;52.20;;;;;;2069538;28;752;-57
2021/04/26 00:15:47;;;;;;;;;;;13.00;52.20;;;;;;2073164;28;722;-56
2021/04/26 00:17:06;;;;;;;;;;;13.10;52.80;;;;;;2072881;28;942;-57
2021/04/26 00:18:25;;;;;;;;;;;13.00;52.80;;;;;;2079387;28;1547;-56
2021/04/26 00:19:45;;;;;;;;;;;13.10;52.90;;;;;;2080428;28;1910;-57
2021/04/26 00:21:04;;;;;;;;;;;13.10;52.40;;;;;;2072315;28;1028;-57
2021/04/26 00:22:23;;;;;;;;;;;13.00;52.30;;;;;;2080150;28;917;-56
2021/04/26 00:23:42;;;;;;;;;;;13.10;52.40;;;;;;2075430;28;1156;-57
2021/04/26 00:25:02;;;;;;;;;;;13.00;52.30;;;;;;2077581;28;779;-56
2021/04/26 00:26:21;;;;;;;;;;;13.00;52.30;;;;;;2081112;28;726;-57
2021/04/26 00:27:40;;;;;;;;;;;13.00;52.40;;;;;;2080322;28;1524;-57
2021/04/26 00:28:59;;;;;;;;;;;13.00;52.40;;;;;;2073234;28;726;-57
2021/04/26 00:30:19;;;;;;;;;;;13.00;52.40;;;;;;2072813;28;770;-57
2021/04/26 00:31:39;;;;;;;;;;;13.00;52.40;;;;;;2072506;28;1439;-57
2021/04/26 00:32:58;;;;;;;;;;;13.00;52.50;;;;;;2076118;28;1873;-57
2021/04/26 00:34:17;;;;;;;;;;;13.00;52.50;;;;;;2081287;28;854;-57
2021/04/26 00:35:36;;;;;;;;;;;13.00;53.00;;;;;;2079651;28;813;-57
2021/04/26 00:36:55;;;;;;;;;;;13.00;52.50;;;;;;2080951;28;779;-55
2021/04/26 00:38:14;;;;;;;;;;;13.00;53.00;;;;;;2075611;28;1276;-55
2021/04/26 00:39:34;;;;;;;;;;;13.00;52.50;;;;;;2072184;28;728;-55
2021/04/26 00:40:53;;;;;;;;;;;12.90;52.40;;;;;;2072221;28;755;-55
2021/04/26 00:42:12;;;;;;;;;;;13.00;52.50;;;;;;2064236;28;810;-57
2021/04/26 00:43:32;;;;;;;;;;;13.00;52.60;;;;;;2069152;28;766;-57
2021/04/26 00:44:51;;;;;;;;;;;12.90;52.50;;;;;;2064101;28;707;-56
2021/04/26 00:46:11;;;;;;;;;;;13.00;52.60;;;;;;2070916;28;1741;-57
2021/04/26 00:47:30;;;;;;;;;;;12.90;52.50;;;;;;2077606;28;728;-57
2021/04/26 00:48:49;;;;;;;;;;;12.90;52.50;;;;;;2064267;28;737;-57
2021/04/26 00:50:10;;;;;;;;;;;12.90;52.50;;;;;;2068917;28;718;-57
2021/04/26 00:51:29;;;;;;;;;;;12.90;52.50;;;;;;2080196;28;1514;-56
2021/04/26 00:52:49;;;;;;;;;;;12.90;53.10;;;;;;2069958;28;1327;-57
2021/04/26 00:54:08;;;;;;;;;;;12.90;52.60;;;;;;2074172;28;757;-57
2021/04/26 00:55:27;;;;;;;;;;;12.90;52.60;;;;;;2073351;28;773;-57
2021/04/26 00:56:47;;;;;;;;;;;12.90;52.60;;;;;;2079043;28;777;-56
2021/04/26 00:58:06;;;;;;;;;;;12.90;52.60;;;;;;2069702;28;1683;-57
2021/04/26 00:59:25;;;;;;;;;;;12.90;52.80;;;;;;2062333;28;970;-57
2021/04/26 01:00:45;;;;;;;;;;;12.90;52.70;;;;;;2070350;28;1906;-57
2021/04/26 01:02:04;;;;;;;;;;;12.90;52.70;;;;;;2070422;28;1727;-56
2021/04/26 01:03:23;;;;;;;;;;;12.90;52.80;;;;;;2079052;28;747;-57
2021/04/26 01:04:43;;;;;;;;;;;12.90;52.80;;;;;;2073716;28;737;-57
2021/04/26 01:06:03;;;;;;;;;;;12.90;52.80;;;;;;2078832;28;732;-54
2021/04/26 01:07:23;;;;;;;;;;;12.90;52.80;;;;;;2073515;28;722;-57
2021/04/26 01:08:43;;;;;;;;;;;12.90;53.40;;;;;;2070626;28;1494;-57
2021/04/26 01:10:11;;;;;;;;;;;12.90;52.80;;;;;;2064886;28;1888;-56
2021/04/26 01:11:43;;;;;;;;;;;12.80;52.80;;;;;;2070640;28;1365;-57
2021/04/26 01:13:21;;;;;;;;;;;12.80;52.80;;;;;;2065685;28;725;-55
2021/04/26 01:14:41;;;;;;;;;;;12.90;52.90;;;;;;2081612;28;765;-55
2021/04/26 01:16:01;;;;;;;;;;;12.80;53.30;;;;;;2081656;28;708;-55
2021/04/26 01:17:22;;;;;;;;;;;12.80;52.80;;;;;;2079546;28;978;-57
2021/04/26 01:18:44;;;;;;;;;;;12.80;52.90;;;;;;2065397;28;1753;-57
2021/04/26 01:20:22;;;;;;;;;;;12.80;52.80;;;;;;2070428;28;1942;-57
2021/04/26 01:21:53;;;;;;;;;;;12.80;52.90;;;;;;2084344;28;1380;-57
2021/04/26 01:23:19;;;;;;;;;;;12.80;53.40;;;;;;2074410;28;901;-57
2021/04/26 01:24:58;;;;;;;;;;;12.80;52.90;;;;;;2081440;28;737;-57
2021/04/26 01:26:32;;;;;;;;;;;12.80;52.90;;;;;;2065180;28;1047;-57
2021/04/26 01:28:00;;;;;;;;;;;12.80;52.90;;;;;;2058425;28;1648;-57
2021/04/26 01:29:28;;;;;;;;;;;12.80;53.00;;;;;;2078765;28;1383;-57
2021/04/26 01:30:52;;;;;;;;;;;12.80;53.00;;;;;;2080021;28;1468;-57
2021/04/26 01:32:18;;;;;;;;;;;12.80;53.00;;;;;;2067769;28;1602;-58
2021/04/26 01:33:39;;;;;;;;;;;12.80;53.00;;;;;;2066408;28;1734;-58
2021/04/26 01:34:59;;;;;;;;;;;12.80;53.00;;;;;;2059878;28;1626;-57
2021/04/26 01:36:25;;;;;;;;;;;12.80;53.60;;;;;;2064841;28;1608;-57
2021/04/26 01:37:50;;;;;;;;;;;12.70;53.00;;;;;;2067777;28;1574;-57
2021/04/26 01:39:10;;;;;;;;;;;12.70;53.00;;;;;;2065616;28;1694;-57
2021/04/26 01:40:29;;;;;;;;;;;12.70;53.00;;;;;;2065419;28;1910;-57
2021/04/26 01:41:51;;;;;;;;;;;12.70;53.00;;;;;;2068699;28;2042;-57
2021/04/26 01:43:11;;;;;;;;;;;12.70;53.00;;;;;;2074537;28;1428;-57
2021/04/26 01:44:30;;;;;;;;;;;12.70;53.00;;;;;;2062331;28;1565;-57
2021/04/26 01:45:52;;;;;;;;;;;12.70;53.00;;;;;;2063494;28;1616;-57
2021/04/26 01:47:12;;;;;;;;;;;12.70;53.00;;;;;;2066996;28;1706;-57
2021/04/26 01:48:32;;;;;;;;;;;12.70;53.10;;;;;;2070871;28;1799;-56
2021/04/26 01:49:53;;;;;;;;;;;12.70;53.60;;;;;;2063036;28;1589;-58
2021/04/26 01:51:12;;;;;;;;;;;12.70;53.10;;;;;;2076752;28;1588;-57
2021/04/26 01:52:34;;;;;;;;;;;12.70;53.20;;;;;;2062966;28;1636;-58
2021/04/26 01:53:53;;;;;;;;;;;12.70;53.20;;;;;;2071888;28;1640;-58
2021/04/26 01:55:13;;;;;;;;;;;12.70;53.20;;;;;;2062421;28;2050;-57
2021/04/26 01:56:33;;;;;;;;;;;12.70;53.20;;;;;;2064096;28;1923;-57
2021/04/26 01:57:52;;;;;;;;;;;12.70;53.20;;;;;;2066253;28;1639;-57
2021/04/26 01:59:12;;;;;;;;;;;12.70;53.20;;;;;;2069139;28;1558;-56
2021/04/26 02:00:33;;;;;;;;;;;12.70;53.80;;;;;;2061881;28;1966;-56
2021/04/26 02:02:01;;;;;;;;;;;12.70;53.20;;;;;;2065468;28;1629;-57
2021/04/26 02:03:23;;;;;;;;;;;12.60;53.20;;;;;;2059691;28;1621;-56
2021/04/26 02:04:54;;;;;;;;;;;12.70;53.30;;;;;;2066645;28;1408;-57
2021/04/26 02:06:40;;;;;;;;;;;12.60;53.20;;;;;;2070109;28;1776;-57
2021/04/26 02:08:18;;;;;;;;;;;12.60;53.20;;;;;;2070900;28;1379;-58
2021/04/26 02:09:40;;;;;;;;;;;12.60;53.80;;;;;;2075914;28;1581;-57
2021/04/26 02:11:03;;;;;;;;;;;12.60;53.30;;;;;;2060748;28;1438;-57
2021/04/26 02:12:22;;;;;;;;;;;12.60;53.30;;;;;;2071764;28;1553;-57
2021/04/26 02:13:44;;;;;;;;;;;12.60;53.30;;;;;;2068651;28;1620;-57
2021/04/26 02:15:07;;;;;;;;;;;12.60;53.30;;;;;;2061782;28;1565;-57
2021/04/26 02:16:27;;;;;;;;;;;12.60;53.80;;;;;;2062720;28;1496;-57
2021/04/26 02:17:46;;;;;;;;;;;12.60;53.30;;;;;;2069816;28;1408;-56
2021/04/26 02:19:06;;;;;;;;;;;12.60;53.30;;;;;;2066765;28;1534;-57
2021/04/26 02:20:26;;;;;;;;;;;12.60;53.30;;;;;;2067235;28;1979;-57
2021/04/26 02:21:45;;;;;;;;;;;12.60;53.30;;;;;;2073679;28;1616;-57
2021/04/26 02:23:04;;;;;;;;;;;12.60;53.30;;;;;;2069400;28;1449;-55
2021/04/26 02:24:23;;;;;;;;;;;12.60;53.30;;;;;;2076925;28;1371;-55
2021/04/26 02:25:43;;;;;;;;;;;12.60;53.40;;;;;;2079811;28;1529;-57
2021/04/26 02:27:04;;;;;;;;;;;12.60;53.40;;;;;;2072184;28;1560;-56
2021/04/26 02:28:24;;;;;;;;;;;12.60;53.40;;;;;;2073898;28;1774;-56
2021/04/26 02:29:44;;;;;;;;;;;12.60;53.50;;;;;;2071859;28;1592;-57
2021/04/26 02:31:03;;;;;;;;;;;12.60;53.50;;;;;;2072204;28;1762;-55
2021/04/26 02:32:24;;;;;;;;;;;12.60;53.40;;;;;;2066554;28;1435;-56
2021/04/26 02:34:12;;;;;;;;;;;12.60;53.50;;;;;;2074450;28;1436;-57
2021/04/26 02:35:39;;;;;;;;;;;12.60;53.50;;;;;;2067477;28;1561;-56
2021/04/26 02:37:01;;;;;;;;;;;12.50;54.00;;;;;;2077977;28;1580;-56
2021/04/26 02:38:22;;;;;;;;;;;12.50;53.60;;;;;;2062414;28;1547;-56
2021/04/26 02:39:42;;;;;;;;;;;12.50;53.50;;;;;;2071370;28;1649;-55
2021/04/26 02:41:08;;;;;;;;;;;12.50;53.50;;;;;;2077316;28;1595;-56
2021/04/26 02:42:28;;;;;;;;;;;12.50;53.50;;;;;;2069245;28;1674;-58
2021/04/26 02:43:49;;;;;;;;;;;12.50;53.50;;;;;;2066087;28;1649;-58
2021/04/26 02:45:09;;;;;;;;;;;12.50;53.50;;;;;;2062605;28;1579;-57
2021/04/26 02:46:29;;;;;;;;;;;12.50;53.60;;;;;;2071144;28;1756;-58
2021/04/26 02:47:49;;;;;;;;;;;12.50;53.60;;;;;;2068321;28;1537;-57
2021/04/26 02:49:11;;;;;;;;;;;12.50;53.60;;;;;;2060408;28;1412;-56
2021/04/26 02:50:31;;;;;;;;;;;12.50;53.60;;;;;;2064837;28;1603;-56
2021/04/26 02:52:01;;;;;;;;;;;12.50;53.60;;;;;;2059415;28;1788;-58
2021/04/26 02:53:23;;;;;;;;;;;12.50;53.60;;;;;;2072727;28;1486;-56
2021/04/26 02:54:44;;;;;;;;;;;12.50;53.60;;;;;;2069793;28;1675;-55
2021/04/26 02:56:13;;;;;;;;;;;12.50;53.60;;;;;;2067392;28;1681;-56
2021/04/26 02:57:34;;;;;;;;;;;12.50;53.70;;;;;;2068225;28;1554;-56
2021/04/26 02:58:55;;;;;;;;;;;12.40;53.60;;;;;;2066607;28;1596;-55
2021/04/26 03:00:20;;;;;;;;;;;12.50;53.70;;;;;;2065833;28;1950;-56
2021/04/26 03:02:02;;;;;;;;;;;12.40;53.60;;;;;;2076045;28;1724;-57
2021/04/26 03:03:45;;;;;;;;;;;12.50;53.70;;;;;;2064071;28;1616;-56
2021/04/26 03:05:05;;;;;;;;;;;12.50;53.70;;;;;;2069264;28;1570;-56
2021/04/26 03:06:25;;;;;;;;;;;12.40;53.60;;;;;;2059798;28;1608;-56
2021/04/26 03:08:09;;;;;;;;;;;12.40;53.60;;;;;;2069815;28;1546;-56
2021/04/26 03:09:29;;;;;;;;;;;12.40;53.60;;;;;;2068373;28;1589;-56
2021/04/26 03:10:51;;;;;;;;;;;12.40;54.20;;;;;;2075538;28;1631;-57
2021/04/26 03:12:10;;;;;;;;;;;12.40;53.70;;;;;;2069574;28;1560;-58
2021/04/26 03:13:36;;;;;;;;;;;12.40;53.70;;;;;;2077074;28;1742;-58
2021/04/26 03:14:56;;;;;;;;;;;12.40;53.70;;;;;;2078862;28;1588;-58
2021/04/26 03:16:15;;;;;;;;;;;12.40;53.70;;;;;;2069186;28;1601;-57
2021/04/26 03:17:35;;;;;;;;;;;12.40;54.20;;;;;;2059051;28;1513;-58
2021/04/26 03:18:56;;;;;;;;;;;12.40;54.20;;;;;;2065134;28;1637;-57
2021/04/26 03:20:16;;;;;;;;;;;12.40;53.80;;;;;;2075299;28;1973;-56
2021/04/26 03:22:02;;;;;;;;;;;12.40;53.80;;;;;;2070177;28;1555;-57
2021/04/26 03:23:23;;;;;;;;;;;12.40;53.80;;;;;;2068695;28;1991;-57
2021/04/26 03:24:43;;;;;;;;;;;12.40;53.70;;;;;;2075595;28;1408;-57
2021/04/26 03:26:04;;;;;;;;;;;12.40;53.60;;;;;;2069395;28;1568;-58
2021/04/26 03:27:23;;;;;;;;;;;12.40;53.50;;;;;;2069436;28;1586;-57
2021/04/26 03:28:43;;;;;;;;;;;12.50;53.60;;;;;;2060557;28;1399;-57
2021/04/26 03:30:04;;;;;;;;;;;12.40;53.40;;;;;;2065854;28;1435;-57
2021/04/26 03:31:28;;;;;;;;;;;12.40;53.80;;;;;;2068136;28;1827;-57
2021/04/26 03:32:50;;;;;;;;;;;12.40;53.10;;;;;;2072773;28;1588;-57
2021/04/26 03:34:11;;;;;;;;;;;12.40;53.10;;;;;;2061719;28;1580;-57
2021/04/26 03:35:31;;;;;;;;;;;12.40;53.20;;;;;;2068005;28;1465;-57
2021/04/26 03:36:51;;;;;;;;;;;12.40;53.20;;;;;;2067688;28;1588;-57
2021/04/26 03:38:11;;;;;;;;;;;12.40;53.40;;;;;;2064721;28;1565;-57
2021/04/26 03:39:31;;;;;;;;;;;12.40;53.70;;;;;;2073159;28;1587;-58
2021/04/26 03:40:54;;;;;;;;;;;12.40;53.80;;;;;;2073969;28;1434;-57
2021/04/26 03:42:14;;;;;;;;;;;12.40;53.80;;;;;;2073545;28;1478;-57
2021/04/26 03:43:34;;;;;;;;;;;12.30;53.70;;;;;;2077199;28;1347;-57
2021/04/26 03:45:00;;;;;;;;;;;12.30;53.80;;;;;;2074970;28;1443;-58
2021/04/26 03:46:55;;;;;;;;;;;12.30;53.70;;;;;;2050234;28;1654;-58
2021/04/26 03:48:35;;;;;;;;;;;12.30;53.80;;;;;;2062398;28;1705;-58
2021/04/26 03:50:08;;;;;;;;;;;12.30;53.80;;;;;;2069530;28;1387;-57
2021/04/26 03:51:47;;;;;;;;;;;12.30;53.80;;;;;;2069197;28;1522;-57
2021/04/26 03:53:41;;;;;;;;;;;12.30;53.90;;;;;;2079367;28;1590;-57
2021/04/26 03:55:09;;;;;;;;;;;12.30;53.80;;;;;;2070515;28;1775;-57
2021/04/26 03:56:28;;;;;;;;;;;12.30;53.80;;;;;;2075090;28;1684;-57
2021/04/26 03:57:48;;;;;;;;;;;12.30;53.90;;;;;;2077205;28;1513;-57
2021/04/26 03:59:07;;;;;;;;;;;12.30;53.90;;;;;;2069328;28;1722;-58
2021/04/26 04:00:28;;;;;;;;;;;12.30;53.90;;;;;;2073171;28;2447;-57
2021/04/26 04:01:54;;;;;;;;;;;12.30;53.90;;;;;;2068699;28;1890;-57
2021/04/26 04:03:15;;;;;;;;;;;12.30;53.90;;;;;;2070652;28;1598;-57
2021/04/26 04:04:37;;;;;;;;;;;12.20;53.90;;;;;;2067361;28;1723;-55
2021/04/26 04:06:25;;;;;;;;;;;12.30;54.00;;;;;;2075556;28;1552;-57
2021/04/26 04:08:04;;;;;;;;;;;12.20;53.90;;;;;;2079690;28;1537;-57
2021/04/26 04:09:42;;;;;;;;;;;12.20;54.00;;;;;;2079389;28;1317;-57
2021/04/26 04:11:10;;;;;;;;;;;12.20;53.90;;;;;;2075793;28;1712;-57
2021/04/26 04:12:52;;;;;;;;;;;12.20;53.90;;;;;;2070621;28;1622;-57
2021/04/26 04:14:12;;;;;;;;;;;12.20;53.90;;;;;;2073789;28;1424;-57
2021/04/26 04:15:35;;;;;;;;;;;12.20;53.90;;;;;;2067980;28;1622;-56
2021/04/26 04:16:54;;;;;;;;;;;12.20;54.00;;;;;;2072459;28;1764;-56
2021/04/26 04:18:14;;;;;;;;;;;12.20;54.00;;;;;;2066827;28;1954;-56
2021/04/26 04:19:33;;;;;;;;;;;12.20;54.50;;;;;;2067277;28;1680;-57
2021/04/26 04:20:53;;;;;;;;;;;12.20;54.60;;;;;;2064163;28;1907;-57
2021/04/26 04:22:13;;;;;;;;;;;12.20;54.00;;;;;;2073380;28;1525;-56
2021/04/26 04:23:38;;;;;;;;;;;12.20;54.00;;;;;;2068229;28;1334;-58
2021/04/26 04:24:57;;;;;;;;;;;12.20;54.00;;;;;;2072829;28;1902;-56
2021/04/26 04:26:17;;;;;;;;;;;12.20;54.00;;;;;;2067148;28;1541;-55
2021/04/26 04:27:44;;;;;;;;;;;12.20;54.00;;;;;;2076250;28;1639;-56
2021/04/26 04:29:04;;;;;;;;;;;12.20;54.00;;;;;;2070984;28;1424;-57
2021/04/26 04:30:44;;;;;;;;;;;12.20;54.00;;;;;;2079323;28;1542;-56
2021/04/26 04:32:22;;;;;;;;;;;12.20;54.00;;;;;;2080254;28;1593;-56
2021/04/26 04:34:20;;;;;;;;;;;12.20;54.00;;;;;;2071126;28;1715;-56
2021/04/26 04:35:58;;;;;;;;;;;12.20;54.00;;;;;;2071340;28;1577;-56
2021/04/26 04:37:35;;;;;;;;;;;12.20;54.00;;;;;;2071325;28;1556;-58
2021/04/26 04:39:13;;;;;;;;;;;12.20;53.80;;;;;;2071220;28;1646;-57
2021/04/26 04:40:52;;;;;;;;;;;12.20;53.70;;;;;;2081124;28;1902;-56
2021/04/26 04:42:15;;;;;;;;;;;12.20;53.60;;;;;;2071759;28;1574;-55
2021/04/26 04:43:34;;;;;;;;;;;12.20;53.50;;;;;;2074169;28;1586;-58
2021/04/26 04:44:54;;;;;;;;;;;12.20;53.50;;;;;;2078454;28;1590;-57
2021/04/26 04:46:13;;;;;;;;;;;12.20;54.00;;;;;;2071393;28;1587;-58
2021/04/26 04:47:37;;;;;;;;;;;12.20;53.60;;;;;;2066767;28;1713;-57
2021/04/26 04:48:57;;;;;;;;;;;12.10;53.70;;;;;;2067981;28;1879;-57
2021/04/26 04:50:18;;;;;;;;;;;12.20;53.80;;;;;;2065855;28;1441;-57
2021/04/26 04:51:39;;;;;;;;;;;12.20;54.40;;;;;;2073030;28;2051;-58
2021/04/26 04:53:00;;;;;;;;;;;12.10;53.70;;;;;;2077806;28;1545;-55
2021/04/26 04:54:20;;;;;;;;;;;12.20;53.90;;;;;;2069694;28;1544;-56
2021/04/26 04:55:52;;;;;;;;;;;12.20;53.90;;;;;;2068509;28;1647;-56
2021/04/26 04:57:17;;;;;;;;;;;12.20;53.90;;;;;;2070379;28;1624;-56
2021/04/26 04:58:36;;;;;;;;;;;12.20;53.90;;;;;;2069698;28;1706;-56
2021/04/26 04:59:55;;;;;;;;;;;12.20;53.90;;;;;;2074304;28;1839;-56
2021/04/26 05:01:34;;;;;;;;;;;12.20;54.40;;;;;;2080393;28;1599;-57
2021/04/26 05:03:19;;;;;;;;;;;12.20;53.90;;;;;;2079101;28;1558;-57
2021/04/26 05:04:57;;;;;;;;;;;12.20;53.90;;;;;;2079961;28;1546;-57
2021/04/26 05:06:36;;;;;;;;;;;12.20;53.90;;;;;;2078883;28;1572;-56
2021/04/26 05:08:14;;;;;;;;;;;12.20;53.90;;;;;;2077618;28;1714;-56
2021/04/26 05:09:52;;;;;;;;;;;12.20;54.50;;;;;;2077353;28;1407;-56
2021/04/26 05:11:30;;;;;;;;;;;12.20;53.90;;;;;;2078107;28;1683;-56
2021/04/26 05:13:28;;;;;;;;;;;12.20;53.90;;;;;;2074269;28;1733;-57
2021/04/26 05:14:54;;;;;;;;;;;12.20;53.90;;;;;;2078257;28;2120;-57
2021/04/26 05:16:14;;;;;;;;;;;12.20;53.90;;;;;;2070789;28;1734;-56
2021/04/26 05:17:34;;;;;;;;;;;12.20;53.90;;;;;;2075336;28;1377;-56
2021/04/26 05:18:53;;;;;;;;;;;12.20;53.90;;;;;;2078501;28;1752;-56
2021/04/26 05:20:13;;;;;;;;;;;12.20;54.00;;;;;;2082137;28;1997;-57
2021/04/26 05:21:32;;;;;;;;;;;12.20;54.50;;;;;;2071391;28;1715;-56
2021/04/26 05:22:52;;;;;;;;;;;12.20;54.00;;;;;;2067160;28;1709;-56
2021/04/26 05:24:11;;;;;;;;;;;12.10;54.00;;;;;;2060712;28;1575;-56
2021/04/26 05:25:31;;;;;;;;;;;12.10;54.00;;;;;;2064343;28;1659;-57
2021/04/26 05:26:51;;;;;;;;;;;12.10;54.00;;;;;;2062989;28;1585;-57
2021/04/26 05:28:11;;;;;;;;;;;12.10;54.00;;;;;;2070199;28;1653;-57
2021/04/26 05:29:35;;;;;;;;;;;12.10;54.00;;;;;;2068239;28;1587;-56
2021/04/26 05:30:55;;;;;;;;;;;12.10;54.60;;;;;;2075039;28;1757;-56
2021/04/26 05:32:15;;;;;;;;;;;12.10;54.60;;;;;;2063852;28;1572;-55
2021/04/26 05:33:36;;;;;;;;;;;12.10;54.10;;;;;;2066269;28;1533;-57
2021/04/26 05:35:11;;;;;;;;;;;12.10;54.10;;;;;;2068095;28;1565;-57
2021/04/26 05:36:31;;;;;;;;;;;12.10;54.10;;;;;;2069459;28;1775;-59
2021/04/26 05:37:55;;;;;;;;;;;12.10;54.10;;;;;;2076384;28;1426;-56
2021/04/26 05:39:15;;;;;;;;;;;12.10;54.70;;;;;;2071387;28;1570;-57
2021/04/26 05:40:35;;;;;;;;;;;12.10;54.00;;;;;;2065884;28;1902;-57
2021/04/26 05:41:55;;;;;;;;;;;12.10;54.00;;;;;;2073958;28;1793;-56
2021/04/26 05:43:15;;;;;;;;;;;12.10;54.00;;;;;;2069219;28;1616;-55
2021/04/26 05:44:35;;;;;;;;;;;12.10;54.10;;;;;;2067810;28;1570;-58
2021/04/26 05:46:14;;;;;;;;;;;12.10;54.00;;;;;;2077733;28;1667;-56
2021/04/26 05:47:33;;;;;;;;;;;12.10;53.80;;;;;;2078501;28;1560;-57
2021/04/26 05:48:52;;;;;;;;;;;12.10;54.10;;;;;;2077643;28;1645;-57
2021/04/26 05:50:11;;;;;;;;;;;12.10;53.50;;;;;;2077144;28;1594;-57
2021/04/26 05:51:31;;;;;;;;;;;12.10;53.40;;;;;;2070591;28;1580;-57
2021/04/26 05:52:50;;;;;;;;;;;12.20;53.50;;;;;;2074872;28;1586;-55
2021/04/26 05:54:09;;;;;;;;;;;12.20;53.50;;;;;;2079018;28;1709;-55
2021/04/26 05:55:28;;;;;;;;;;;12.10;53.50;;;;;;2070155;28;1549;-57
2021/04/26 05:56:48;;;;;;;;;;;12.20;53.50;;;;;;2073623;28;1569;-56
2021/04/26 05:58:07;;;;;;;;;;;12.20;53.50;;;;;;2072121;28;1628;-56
2021/04/26 05:59:26;;;;;;;;;;;12.10;53.50;;;;;;2073124;28;1675;-56
2021/04/26 06:00:45;;;;;;;;;;;12.20;53.50;;;;;;2077065;28;1987;-57
2021/04/26 06:02:05;;;;;;;;;;;12.20;53.60;;;;;;2069710;28;1559;-57
2021/04/26 06:03:24;;;;;;;;;;;12.20;53.50;;;;;;2075373;28;1715;-57
2021/04/26 06:04:43;;;;;;;;;;;12.20;53.50;;;;;;2079466;28;1655;-57
2021/04/26 06:06:03;;;;;;;;;;;12.20;53.50;;;;;;2076571;28;1659;-57
2021/04/26 06:07:22;;;;;;;;;;;12.20;53.50;;;;;;2075854;28;1690;-57
2021/04/26 06:08:41;;;;;;;;;;;12.20;54.10;;;;;;2078440;28;1714;-56
2021/04/26 06:10:00;;;;;;;;;;;12.20;53.50;;;;;;2078632;28;1429;-57
2021/04/26 06:11:19;;;;;;;;;;;12.20;53.50;;;;;;2077987;28;1477;-57
2021/04/26 06:12:39;;;;;;;;;;;12.20;53.60;;;;;;2077925;28;1548;-57
2021/04/26 06:13:58;;;;;;;;;;;12.20;53.60;;;;;;2078303;28;1541;-56
2021/04/26 06:15:17;;;;;;;;;;;12.20;53.70;;;;;;2078889;28;1580;-56
2021/04/26 06:16:37;;;;;;;;;;;12.20;53.70;;;;;;2069187;28;1652;-56
2021/04/26 06:18:09;;;;;;;;;;;12.20;53.60;;;;;;2073452;28;1594;-58
2021/04/26 06:19:28;;;;;;;;;;;12.30;53.70;;;;;;2069078;28;1530;-56
2021/04/26 06:20:49;;;;;;;;;;;12.30;53.60;;;;;;2074188;28;1914;-57
2021/04/26 06:22:08;;;;;;;;;;;12.40;53.60;;;;;;2077876;28;2126;-57
2021/04/26 06:23:27;;;;;;;;;;;12.40;53.50;;;;;;2070784;28;1632;-57
2021/04/26 06:24:47;;;;;;;;;;;12.50;53.50;;;;;;2075617;28;1665;-57
2021/04/26 06:26:06;;;;;;;;;;;12.60;53.50;;;;;;2078330;28;1591;-56
2021/04/26 06:27:25;;;;;;;;;;;12.60;53.80;;;;;;2069200;28;1653;-56
2021/04/26 06:28:44;;;;;;;;;;;12.70;53.80;;;;;;2074152;28;1565;-57
2021/04/26 06:30:04;;;;;;;;;;;12.70;53.60;;;;;;2076799;28;1573;-57
2021/04/26 06:31:23;;;;;;;;;;;12.80;53.00;;;;;;2078797;28;1782;-57
2021/04/26 06:32:43;;;;;;;;;;;12.80;52.80;;;;;;2079942;28;1727;-57
2021/04/26 06:34:02;;;;;;;;;;;12.90;52.80;;;;;;2068318;28;1525;-57
2021/04/26 06:35:21;;;;;;;;;;;13.00;52.70;;;;;;2065297;28;1827;-57
2021/04/26 06:36:40;;;;;;;;;;;13.10;52.20;;;;;;2073558;28;1436;-56
2021/04/26 06:38:00;;;;;;;;;;;13.00;50.20;;;;;;2080381;28;1667;-57
2021/04/26 06:39:19;;;;;;;;;;;12.70;47.20;;;;;;2078125;28;1552;-57
2021/04/26 06:40:38;;;;;;;;;;;12.70;48.90;;;;;;2080329;28;1910;-57
2021/04/26 06:42:00;;;;;;;;;;;12.80;49.00;;;;;;2079511;28;1572;-56
2021/04/26 06:43:19;;;;;;;;;;;12.90;48.60;;;;;;2079437;28;1526;-57
2021/04/26 06:44:38;;;;;;;;;;;13.00;48.20;;;;;;2076932;28;1625;-57
2021/04/26 06:45:57;;;;;;;;;;;13.20;47.90;;;;;;2079052;28;1595;-57
2021/04/26 06:47:17;;;;;;;;;;;13.30;47.60;;;;;;2074585;28;1497;-57
2021/04/26 06:48:36;;;;;;;;;;;13.40;47.50;;;;;;2079225;28;1580;-57
2021/04/26 06:49:55;;;;;;;;;;;13.50;47.40;;;;;;2077333;28;1722;-56
2021/04/26 06:51:14;;;;;;;;;;;13.60;47.40;;;;;;2063512;28;1638;-57
2021/04/26 06:52:34;;;;;;;;;;;13.70;47.40;;;;;;2072581;28;1530;-56
2021/04/26 06:53:53;;;;;;;;;;;13.70;47.40;;;;;;2077065;28;1541;-56
2021/04/26 06:55:12;;;;;;;;;;;13.70;47.40;;;;;;2078960;28;1551;-57
2021/04/26 06:56:32;;;;;;;;;;;13.80;47.50;;;;;;2077090;28;1597;-57
2021/04/26 06:57:51;;;;;;;;;;;13.80;47.60;;;;;;2070946;28;1595;-57
2021/04/26 06:59:10;;;;;;;;;;;13.80;47.60;;;;;;2073325;28;1676;-57
2021/04/26 07:00:29;;;;;;;;;;;13.80;47.70;;;;;;2067784;28;1899;-57
2021/04/26 07:01:48;;;;;;;;;;;13.80;47.70;;;;;;2074961;28;1647;-57
2021/04/26 07:03:08;;;;;;;;;;;13.90;47.90;;;;;;2079415;28;1365;-57
2021/04/26 07:04:27;;;;;;;;;;;13.90;47.90;;;;;;2071404;28;1585;-57
2021/04/26 07:05:46;;;;;;;;;;;14.00;47.90;;;;;;2068547;28;1697;-57
2021/04/26 07:07:06;;;;;;;;;;;14.00;47.90;;;;;;2067184;28;1553;-56
2021/04/26 07:08:25;;;;;;;;;;;14.00;48.00;;;;;;2076203;28;1512;-57
2021/04/26 07:09:45;;;;;;;;;;;14.10;48.10;;;;;;2076506;28;1506;-57
2021/04/26 07:11:04;;;;;;;;;;;14.10;48.00;;;;;;2075888;28;1539;-57
2021/04/26 07:12:23;;;;;;;;;;;14.20;48.10;;;;;;2078775;28;1583;-56
2021/04/26 07:13:43;;;;;;;;;;;14.30;48.20;;;;;;2079081;28;1383;-57
2021/04/26 07:15:03;;;;;;;;;;;14.30;48.10;;;;;;2078671;28;1524;-57
2021/04/26 07:16:22;;;;;;;;;;;14.30;48.20;;;;;;2080667;28;1536;-56
2021/04/26 07:17:42;;;;;;;;;;;14.30;48.70;;;;;;2076407;28;1574;-57
2021/04/26 07:19:01;;;;;;;;;;;14.30;48.20;;;;;;2069780;28;1544;-57
2021/04/26 07:20:21;;;;;;;;;;;14.40;48.20;;;;;;2075178;28;1906;-57
2021/04/26 07:21:40;;;;;;;;;;;14.40;48.30;;;;;;2077210;28;1452;-56
2021/04/26 07:23:00;;;;;;;;;;;14.40;48.40;;;;;;2078493;28;1556;-57
2021/04/26 07:24:19;;;;;;;;;;;14.40;48.40;;;;;;2079390;28;1550;-56
2021/04/26 07:25:38;;;;;;;;;;;14.50;48.50;;;;;;2077985;28;1546;-57
2021/04/26 07:26:57;;;;;;;;;;;14.50;48.60;;;;;;2070409;28;1508;-57
2021/04/26 07:28:16;;;;;;;;;;;14.50;48.60;;;;;;2073624;28;1404;-56
2021/04/26 07:29:36;;;;;;;;;;;14.50;48.60;;;;;;2067579;28;1634;-57
2021/04/26 07:30:55;;;;;;;;;;;14.50;48.60;;;;;;2076362;28;1755;-57
2021/04/26 07:32:14;;;;;;;;;;;14.50;48.60;;;;;;2074921;28;1847;-57
2021/04/26 07:33:33;;;;;;;;;;;14.50;48.70;;;;;;2076856;28;1218;-58
2021/04/26 07:34:52;;;;;;;;;;;14.50;49.30;;;;;;2075113;28;1313;-56
2021/04/26 07:36:12;;;;;;;;;;;14.50;48.90;;;;;;2078858;28;1159;-57
2021/04/26 07:37:32;;;;;;;;;;;14.50;48.90;;;;;;2070303;28;1805;-59
2021/04/26 07:38:51;;;;;;;;;;;14.50;49.00;;;;;;2073793;28;1580;-57
2021/04/26 07:40:11;;;;;;;;;;;14.50;49.10;;;;;;2068263;28;1959;-60
2021/04/26 07:41:30;;;;;;;;;;;14.50;49.10;;;;;;2074687;28;1724;-56
2021/04/26 07:42:49;;;;;;;;;;;14.50;49.20;;;;;;2077727;28;1598;-57
2021/04/26 07:44:09;;;;;;;;;;;14.50;49.30;;;;;;2078656;28;1410;-58
2021/04/26 07:45:28;;;;;;;;;;;14.50;49.30;;;;;;2069606;28;1628;-58
2021/04/26 07:46:47;;;;;;;;;;;14.40;49.00;;;;;;2067298;28;1564;-56
2021/04/26 07:48:06;;;;;;;;;;;14.20;48.50;;;;;;2072558;28;1608;-58
2021/04/26 07:49:25;;;;;;;;;;;14.20;48.20;;;;;;2077339;28;1565;-57
2021/04/26 07:50:44;;;;;;;;;;;14.20;48.60;;;;;;2070121;28;1301;-56
2021/04/26 07:52:04;;;;;;;;;;;14.20;48.50;;;;;;2064732;28;1714;-56
2021/04/26 07:53:23;;;;;;;;;;;14.20;47.90;;;;;;2073002;28;1575;-57
2021/04/26 07:54:42;;;;;;;;;;;14.20;47.90;;;;;;2071403;28;1575;-58
2021/04/26 07:56:02;;;;;;;;;;;14.20;47.80;;;;;;2075003;28;1762;-57
2021/04/26 07:57:21;;;;;;;;;;;14.20;47.90;;;;;;2077308;28;1605;-57
2021/04/26 07:58:40;;;;;;;;;;;14.30;48.00;;;;;;2076255;28;1332;-58
2021/04/26 08:00:00;;;;;;;;;;;14.30;48.00;;;;;;2067598;28;1589;-55
2021/04/26 08:01:19;;;;;;;;;;;14.30;48.00;;;;;;2067998;28;1449;-56
2021/04/26 08:02:39;;;;;;;;;;;14.30;48.00;;;;;;2073749;28;1569;-60
2021/04/26 08:03:58;;;;;;;;;;;14.30;48.00;;;;;;2076354;28;1461;-57
2021/04/26 08:05:17;;;;;;;;;;;14.30;48.10;;;;;;2070512;28;1748;-59
2021/04/26 08:06:37;;;;;;;;;;;14.40;48.20;;;;;;2076155;28;1646;-55
2021/04/26 08:07:56;;;;;;;;;;;14.40;48.20;;;;;;2078516;28;1686;-55
2021/04/26 08:09:15;;;;;;;;;;;14.40;48.80;;;;;;2078388;28;1591;-57